Time;durP1;ratioP1;P1;durP2;ratioP2;P2;SDS_P1;SDS_P2;PMS_P1;PMS_P2;Temp;Humidity;BMP_temperature;BMP_pressure;BME280_temperature;BME280_humidity;BME280_pressure;Samples;Min_cycle;Max_cycle;Signal;HPM_P1;HPM_P2
2022/10/10 00:01:20;;;;;;;27.95;18.23;;;;;;;12.95;100.00;100732.97;1758004;80;21031;-70
2022/10/10 00:03:48;;;;;;;35.43;20.50;;;;;;;13.02;100.00;100733.05;1759510;81;21048;-71
2022/10/10 00:06:15;;;;;;;30.72;19.87;;;;;;;13.11;100.00;100736.08;1767212;81;21087;-71
2022/10/10 00:08:45;;;;;;;33.67;19.77;;;;;;;13.11;100.00;100739.49;1761257;81;21043;-71
2022/10/10 00:11:16;;;;;;;29.67;18.42;;;;;;;13.06;100.00;100744.08;1764717;81;21500;-71
2022/10/10 00:13:45;;;;;;;24.65;17.02;;;;;;;13.10;100.00;100739.13;1753269;81;21471;-71
2022/10/10 00:16:16;;;;;;;27.50;17.55;;;;;;;13.17;100.00;100741.77;1750853;81;21017;-71
2022/10/10 00:18:44;;;;;;;27.85;18.48;;;;;;;13.20;100.00;100745.50;1763767;81;21543;-71
2022/10/10 00:21:12;;;;;;;23.95;17.57;;;;;;;13.27;100.00;100742.59;1760705;81;21054;-71
2022/10/10 00:23:39;;;;;;;23.32;16.85;;;;;;;13.32;100.00;100744.50;1752884;81;21032;-71
2022/10/10 00:26:08;;;;;;;22.32;16.42;;;;;;;13.42;100.00;100752.16;1766796;81;21060;-71
2022/10/10 00:28:37;;;;;;;25.12;16.45;;;;;;;13.40;100.00;100760.02;1756096;81;21437;-71
2022/10/10 00:31:07;;;;;;;23.27;15.88;;;;;;;13.46;100.00;100761.89;1750086;81;21017;-71
2022/10/10 00:33:37;;;;;;;27.67;16.05;;;;;;;13.55;100.00;100767.42;1763269;81;21496;-71
2022/10/10 00:36:05;;;;;;;22.10;15.32;;;;;;;13.52;100.00;100760.28;1766640;81;21550;-71
2022/10/10 00:38:34;;;;;;;22.48;15.98;;;;;;;13.54;100.00;100769.63;1766586;81;21630;-71
2022/10/10 00:41:02;;;;;;;23.38;14.80;;;;;;;13.48;100.00;100760.89;1764908;81;21040;-71
2022/10/10 00:43:31;;;;;;;23.67;15.55;;;;;;;13.49;100.00;100768.22;1763426;81;21040;-71
2022/10/10 00:45:58;;;;;;;20.27;14.95;;;;;;;13.51;100.00;100767.67;1768722;81;21052;-71
2022/10/10 00:48:30;;;;;;;23.52;15.23;;;;;;;13.43;100.00;100770.19;1764705;81;21508;-70
2022/10/10 00:51:13;;;;;;;20.65;14.40;;;;;;;13.35;100.00;100762.45;1766774;81;21060;-71
2022/10/10 00:53:48;;;;;;;18.15;13.22;;;;;;;13.27;100.00;100769.28;1762034;81;21042;-71
2022/10/10 00:56:20;;;;;;;22.37;14.87;;;;;;;13.19;100.00;100765.78;1756671;81;21004;-72
2022/10/10 00:58:51;;;;;;;18.60;13.35;;;;;;;13.06;100.00;100763.89;1761652;81;21015;-71
2022/10/10 01:01:20;;;;;;;21.68;13.50;;;;;;;13.02;100.00;100770.98;1758695;81;21085;-70
2022/10/10 01:03:48;;;;;;;26.55;14.55;;;;;;;12.94;100.00;100766.20;1760299;81;21041;-71
2022/10/10 01:06:15;;;;;;;21.42;13.83;;;;;;;12.81;100.00;100768.56;1752399;81;21074;-71
2022/10/10 01:08:44;;;;;;;25.35;14.58;;;;;;;12.75;100.00;100763.70;1766382;81;21064;-71
2022/10/10 01:11:34;;;;;;;26.37;13.88;;;;;;;12.68;100.00;100758.89;1764025;81;21025;-71
2022/10/10 01:14:19;;;;;;;20.77;13.22;;;;;;;12.59;100.00;100762.31;1763798;81;20989;-71
2022/10/10 01:17:06;;;;;;;17.82;13.03;;;;;;;12.43;100.00;100767.83;1763950;81;21012;-71
2022/10/10 01:20:07;;;;;;;18.05;12.60;;;;;;;12.32;100.00;100754.58;1763829;81;21040;-71
2022/10/10 01:23:07;;;;;;;17.30;11.85;;;;;;;12.26;100.00;100754.88;1765118;81;21059;-71
2022/10/10 01:25:59;;;;;;;20.75;11.93;;;;;;;12.18;100.00;100764.26;1765467;81;21085;-71
2022/10/10 01:28:40;;;;;;;18.70;12.28;;;;;;;12.07;100.00;100754.45;1767118;81;21028;-71
2022/10/10 01:31:11;;;;;;;16.35;11.48;;;;;;;12.03;100.00;100758.08;1764436;81;21023;-71
2022/10/10 01:33:59;;;;;;;16.95;11.75;;;;;;;12.00;100.00;100757.77;1764739;81;21824;-71
2022/10/10 01:36:34;;;;;;;18.20;12.40;;;;;;;11.89;100.00;100757.88;1755134;81;21028;-70
2022/10/10 01:39:12;;;;;;;16.07;11.53;;;;;;;11.88;100.00;100755.72;1759540;81;20984;-71
2022/10/10 01:41:45;;;;;;;16.45;11.65;;;;;;;11.96;100.00;100764.41;1763930;81;21524;-71
2022/10/10 01:44:11;;;;;;;19.32;11.33;;;;;;;11.95;100.00;100773.91;1764112;81;21480;-72
2022/10/10 01:46:39;;;;;;;20.05;11.30;;;;;;;11.92;100.00;100773.20;1764260;81;21079;-71
2022/10/10 01:49:05;;;;;;;22.98;12.35;;;;;;;11.90;100.00;100773.72;1767519;81;21036;-71
2022/10/10 01:52:13;;;;;;;20.88;11.08;;;;;;;11.91;100.00;100778.81;1762233;81;21529;-71
2022/10/10 01:55:04;;;;;;;17.80;10.08;;;;;;;11.94;100.00;100776.11;1756837;81;21036;-71
2022/10/10 01:57:55;;;;;;;15.08;10.30;;;;;;;11.97;100.00;100784.98;1753391;81;21062;-71
2022/10/10 02:00:22;;;;;;;12.30;8.88;;;;;;;11.97;100.00;100783.70;1761893;81;21147;-71
2022/10/10 02:03:06;;;;;;;17.37;9.05;;;;;;;11.96;100.00;100791.06;1764067;81;21036;-71
2022/10/10 02:06:01;;;;;;;12.93;9.08;;;;;;;11.96;100.00;100785.91;1717327;83;21052;-72
2022/10/10 02:08:39;;;;;;;12.50;8.45;;;;;;;11.97;100.00;100794.02;1759319;80;21515;-71
2022/10/10 02:11:11;;;;;;;13.08;8.43;;;;;;;12.01;100.00;100778.78;1759418;81;21453;-71
2022/10/10 02:13:43;;;;;;;12.80;8.78;;;;;;;12.08;100.00;100783.20;1712640;82;21071;-71
2022/10/10 02:16:25;;;;;;;14.47;9.30;;;;;;;12.06;100.00;100786.30;1692608;84;21075;-72
2022/10/10 02:18:55;;;;;;;13.18;8.15;;;;;;;12.00;100.00;100782.71;1757294;81;21200;-71
2022/10/10 02:21:23;;;;;;;13.13;8.43;;;;;;;11.96;100.00;100782.47;1738609;81;21055;-71
2022/10/10 02:23:52;;;;;;;16.57;8.43;;;;;;;11.94;100.00;100785.14;1770281;80;21114;-71
2022/10/10 02:26:22;;;;;;;11.85;8.43;;;;;;;11.83;100.00;100786.86;1777835;80;21539;-71
2022/10/10 02:29:04;;;;;;;13.72;8.18;;;;;;;11.79;100.00;100780.17;1766740;80;21043;-71
2022/10/10 02:31:45;;;;;;;12.40;8.28;;;;;;;11.81;100.00;100778.36;1764965;81;21508;-71
2022/10/10 02:34:17;;;;;;;12.65;8.95;;;;;;;11.79;100.00;100777.59;1748584;81;21083;-71
2022/10/10 02:36:48;;;;;;;17.02;9.80;;;;;;;11.72;100.00;100782.66;1762771;81;21042;-72
2022/10/10 02:39:19;;;;;;;17.52;9.33;;;;;;;11.67;100.00;100774.27;1766485;81;21043;-71
2022/10/10 02:41:48;;;;;;;14.38;9.33;;;;;;;11.63;100.00;100769.69;1763660;81;21006;-71
2022/10/10 02:44:15;;;;;;;11.57;8.58;;;;;;;11.62;100.00;100770.61;1765313;81;21040;-71
2022/10/10 02:46:42;;;;;;;12.20;8.58;;;;;;;11.58;100.00;100765.67;1764248;81;21032;-71
2022/10/10 02:49:10;;;;;;;13.83;8.70;;;;;;;11.52;100.00;100769.80;1766610;81;21027;-70
2022/10/10 02:51:38;;;;;;;13.32;8.53;;;;;;;11.51;100.00;100766.83;1760340;81;21019;-71
2022/10/10 02:54:07;;;;;;;13.88;8.88;;;;;;;11.53;100.00;100759.86;1766475;81;21056;-71
2022/10/10 02:56:35;;;;;;;13.32;9.23;;;;;;;11.47;100.00;100759.67;1766458;81;21098;-71
2022/10/10 02:59:02;;;;;;;14.33;9.20;;;;;;;11.44;100.00;100746.94;1765050;81;21074;-72
2022/10/10 03:01:29;;;;;;;16.20;9.38;;;;;;;11.45;100.00;100751.63;1719496;83;21084;-71
2022/10/10 03:03:56;;;;;;;13.75;8.95;;;;;;;11.38;100.00;100749.78;1696651;84;21531;-71
2022/10/10 03:06:23;;;;;;;12.80;8.85;;;;;;;11.39;100.00;100750.16;1692685;83;21515;-71
2022/10/10 03:08:51;;;;;;;13.20;8.90;;;;;;;11.24;100.00;100743.93;1692599;84;21043;-71
2022/10/10 03:11:18;;;;;;;15.10;9.33;;;;;;;11.27;100.00;100740.38;1692631;84;21136;-71
2022/10/10 03:13:47;;;;;;;15.28;9.33;;;;;;;11.33;100.00;100741.39;1709880;83;21048;-71
2022/10/10 03:16:16;;;;;;;14.45;9.05;;;;;;;11.33;100.00;100744.80;1709078;83;21610;-71
2022/10/10 03:18:43;;;;;;;12.82;9.45;;;;;;;11.37;100.00;100742.48;1702028;83;21060;-71
2022/10/10 03:21:10;;;;;;;14.38;9.93;;;;;;;11.39;100.00;100735.97;1685533;85;21060;-71
2022/10/10 03:23:37;;;;;;;16.87;9.95;;;;;;;11.42;100.00;100737.97;1673973;85;21115;-71
2022/10/10 03:26:04;;;;;;;14.33;9.70;;;;;;;11.50;100.00;100732.48;1656225;85;21060;-71
2022/10/10 03:28:31;;;;;;;15.32;10.15;;;;;;;11.53;100.00;100728.92;1677569;85;21060;-71
2022/10/10 03:31:00;;;;;;;14.25;9.70;;;;;;;11.58;100.00;100724.41;1680256;85;21095;-71
2022/10/10 03:33:27;;;;;;;14.40;10.10;;;;;;;11.54;100.00;100724.17;1703581;84;21547;-71
2022/10/10 03:35:54;;;;;;;13.43;9.53;;;;;;;11.55;100.00;100727.95;1685873;85;21088;-71
2022/10/10 03:38:21;;;;;;;14.65;10.48;;;;;;;11.64;100.00;100726.72;1669977;85;21126;-71
2022/10/10 03:40:48;;;;;;;14.63;9.93;;;;;;;11.60;100.00;100727.77;1664939;84;21126;-71
2022/10/10 03:43:16;;;;;;;17.62;10.35;;;;;;;11.62;100.00;100725.49;1681208;85;21059;-72
2022/10/10 03:45:46;;;;;;;15.98;10.63;;;;;;;11.66;100.00;100727.48;1674351;85;21088;-71
2022/10/10 03:48:13;;;;;;;15.55;10.25;;;;;;;11.72;100.00;100724.63;1666818;85;21099;-71
2022/10/10 03:50:41;;;;;;;14.80;9.93;;;;;;;11.73;100.00;100724.17;1682997;85;21100;-71
2022/10/10 03:53:08;;;;;;;19.57;10.70;;;;;;;11.85;100.00;100727.94;1671958;85;21107;-71
2022/10/10 03:55:41;;;;;;;14.18;10.30;;;;;;;11.94;100.00;100726.23;1653894;85;21583;-71
2022/10/10 03:58:10;;;;;;;14.65;10.10;;;;;;;12.05;100.00;100729.63;1714468;82;21024;-71
2022/10/10 04:00:37;;;;;;;15.93;10.28;;;;;;;12.12;100.00;100736.98;1691676;84;21083;-71
2022/10/10 04:03:05;;;;;;;13.22;9.58;;;;;;;12.22;100.00;100733.06;1685568;84;21107;-71
2022/10/10 04:05:37;;;;;;;18.25;11.57;;;;;;;12.29;100.00;100733.62;1679985;85;21571;-70
2022/10/10 04:08:05;;;;;;;17.92;11.08;;;;;;;12.29;100.00;100745.25;1673340;85;21047;-71
2022/10/10 04:10:33;;;;;;;17.12;11.00;;;;;;;12.37;100.00;100744.89;1695953;82;21099;-70
2022/10/10 04:13:01;;;;;;;17.25;10.23;;;;;;;12.38;100.00;100743.97;1673789;86;21088;-70
2022/10/10 04:15:29;;;;;;;14.43;9.65;;;;;;;12.36;100.00;100743.20;1680665;84;21052;-70
2022/10/10 04:17:56;;;;;;;14.30;9.70;;;;;;;12.44;100.00;100754.00;1686851;84;21595;-71
2022/10/10 04:20:23;;;;;;;16.02;11.03;;;;;;;12.46;100.00;100750.06;1743558;82;21030;-71
2022/10/10 04:22:50;;;;;;;18.30;11.45;;;;;;;12.52;100.00;100759.63;1743508;82;21062;-70
2022/10/10 04:25:18;;;;;;;18.20;9.85;;;;;;;12.50;100.00;100758.86;1743388;82;21039;-70
2022/10/10 04:27:44;;;;;;;13.90;9.83;;;;;;;12.53;100.00;100758.73;1745333;82;21483;-71
2022/10/10 04:30:14;;;;;;;12.13;8.80;;;;;;;12.56;100.00;100768.07;1742160;82;21483;-70
2022/10/10 04:32:41;;;;;;;12.75;8.60;;;;;;;12.50;100.00;100778.70;1741495;82;21035;-70
2022/10/10 04:35:08;;;;;;;12.98;9.05;;;;;;;12.50;100.00;100779.52;1743277;82;21035;-70
2022/10/10 04:37:36;;;;;;;12.58;8.35;;;;;;;12.52;100.00;100778.17;1745780;82;21027;-70
2022/10/10 04:40:04;;;;;;;13.15;9.25;;;;;;;12.57;100.00;100783.93;1743287;81;21031;-70
2022/10/10 04:42:31;;;;;;;14.93;9.73;;;;;;;12.61;100.00;100782.44;1747753;82;21058;-71
2022/10/10 04:44:58;;;;;;;16.77;9.38;;;;;;;12.62;100.00;100793.60;1743514;81;21003;-71
2022/10/10 04:47:25;;;;;;;15.63;9.08;;;;;;;12.67;100.00;100790.78;1743331;82;21034;-70
2022/10/10 04:49:52;;;;;;;12.35;8.63;;;;;;;12.67;100.00;100801.12;1743640;82;21027;-71
2022/10/10 04:52:19;;;;;;;14.38;8.15;;;;;;;12.68;100.00;100802.34;1743318;82;21031;-71
2022/10/10 04:54:46;;;;;;;11.70;8.60;;;;;;;12.77;100.00;100803.20;1743203;82;21028;-71
2022/10/10 04:57:13;;;;;;;13.85;8.30;;;;;;;12.72;100.00;100814.66;1747726;82;21031;-71
2022/10/10 04:59:40;;;;;;;11.30;8.20;;;;;;;12.83;100.00;100818.84;1742960;82;21137;-70
2022/10/10 05:02:07;;;;;;;11.05;8.08;;;;;;;12.76;100.00;100834.27;1741115;82;21113;-71
2022/10/10 05:04:35;;;;;;;10.75;8.13;;;;;;;12.85;100.00;100826.06;1743738;82;21035;-70
2022/10/10 05:07:02;;;;;;;11.75;8.05;;;;;;;12.88;100.00;100833.67;1743230;82;21031;-70
2022/10/10 05:09:32;;;;;;;10.10;7.42;;;;;;;12.94;100.00;100836.42;1743294;82;21051;-70
2022/10/10 05:11:59;;;;;;;10.80;7.30;;;;;;;13.02;100.00;100837.71;1743502;82;21023;-70
2022/10/10 05:14:26;;;;;;;13.50;6.80;;;;;;;13.06;100.00;100841.42;1738655;82;21017;-71
2022/10/10 05:16:53;;;;;;;12.18;7.55;;;;;;;13.17;100.00;100843.86;1735351;82;21042;-71
2022/10/10 05:19:20;;;;;;;9.68;7.40;;;;;;;13.34;100.00;100844.80;1727721;82;21077;-71
2022/10/10 05:21:48;;;;;;;10.98;7.47;;;;;;;13.38;100.00;100855.38;1742312;82;21006;-70
2022/10/10 05:24:15;;;;;;;9.75;6.75;;;;;;;13.30;100.00;100854.48;1743373;82;21101;-70
2022/10/10 05:26:42;;;;;;;9.50;7.05;;;;;;;13.40;100.00;100854.84;1737404;82;21066;-70
2022/10/10 05:29:09;;;;;;;11.83;7.65;;;;;;;13.45;100.00;100862.39;1725464;81;21663;-71
2022/10/10 05:31:35;;;;;;;9.53;7.33;;;;;;;13.56;100.00;100862.20;1742185;82;21089;-70
2022/10/10 05:34:03;;;;;;;12.45;8.05;;;;;;;13.54;100.00;100869.20;1737961;82;21088;-70
2022/10/10 05:36:30;;;;;;;9.63;7.67;;;;;;;13.52;100.00;100870.20;1743458;81;21041;-70
2022/10/10 05:38:59;;;;;;;12.30;8.53;;;;;;;13.43;100.00;100878.80;1743271;82;21069;-70
2022/10/10 05:41:26;;;;;;;11.43;8.18;;;;;;;13.57;100.00;100876.81;1739490;82;21061;-71
2022/10/10 05:43:53;;;;;;;11.83;8.83;;;;;;;13.64;100.00;100872.16;1745260;82;21038;-70
2022/10/10 05:46:23;;;;;;;10.45;8.30;;;;;;;13.64;100.00;100881.21;1731278;82;21046;-70
2022/10/10 05:48:50;;;;;;;13.00;7.58;;;;;;;13.63;100.00;100880.85;1725219;82;21002;-71
2022/10/10 05:51:17;;;;;;;11.75;8.00;;;;;;;13.67;100.00;100881.53;1735744;82;21600;-70
2022/10/10 05:53:43;;;;;;;11.30;7.40;;;;;;;13.78;100.00;100877.46;1732699;82;21101;-71
2022/10/10 05:56:13;;;;;;;10.70;7.40;;;;;;;13.80;100.00;100881.27;1743217;81;21053;-70
2022/10/10 05:58:40;;;;;;;11.05;7.40;;;;;;;13.74;100.00;100882.41;1732525;81;21039;-71
2022/10/10 06:01:08;;;;;;;9.70;7.40;;;;;;;13.95;100.00;100887.39;1740963;82;21053;-71
2022/10/10 06:03:35;;;;;;;10.98;7.22;;;;;;;13.93;100.00;100895.26;1710871;82;21057;-71
2022/10/10 06:06:03;;;;;;;10.05;7.33;;;;;;;13.99;100.00;100891.06;1708763;82;21549;-70
2022/10/10 06:08:31;;;;;;;10.78;6.92;;;;;;;14.05;100.00;100891.20;1742121;82;21045;-70
2022/10/10 06:11:09;;;;;;;13.28;6.87;;;;;;;13.98;100.00;100895.84;1727517;82;21529;-70
2022/10/10 06:13:38;;;;;;;11.12;7.50;;;;;;;13.98;100.00;100893.72;1737284;81;21041;-71
2022/10/10 06:16:06;;;;;;;10.45;6.87;;;;;;;13.93;100.00;100911.22;1704352;82;21184;-70
2022/10/10 06:18:36;;;;;;;9.88;6.90;;;;;;;13.96;100.00;100905.44;1704163;82;21136;-70
2022/10/10 06:21:06;;;;;;;8.83;6.85;;;;;;;14.05;100.00;100895.08;1727476;82;21085;-70
2022/10/10 06:23:34;;;;;;;8.78;6.67;;;;;;;14.33;100.00;100903.95;1733154;82;20994;-70
2022/10/10 06:26:03;;;;;;;8.70;6.58;;;;;;;14.30;100.00;100913.20;1737236;82;21081;-71
2022/10/10 06:28:30;;;;;;;8.25;6.78;;;;;;;14.32;100.00;100919.14;1739437;81;21057;-70
2022/10/10 06:31:00;;;;;;;10.90;6.70;;;;;;;14.38;100.00;100924.81;1730326;82;21355;-71
2022/10/10 06:33:27;;;;;;;9.28;6.60;;;;;;;14.28;100.00;100916.33;1743222;81;21564;-70
2022/10/10 06:35:54;;;;;;;8.70;6.40;;;;;;;14.43;100.00;100921.97;1742068;82;21058;-71
2022/10/10 06:38:26;;;;;;;7.92;5.72;;;;;;;14.38;100.00;100930.46;1716963;82;21101;-71
2022/10/10 06:40:54;;;;;;;9.15;6.62;;;;;;;14.37;100.00;100936.55;1734666;82;21061;-71
2022/10/10 06:43:21;;;;;;;9.35;6.70;;;;;;;14.48;100.00;100926.93;1743329;81;21053;-70
2022/10/10 06:45:50;;;;;;;8.88;6.05;;;;;;;14.58;100.00;100927.67;1743280;82;21080;-71
2022/10/10 06:48:17;;;;;;;9.15;6.47;;;;;;;14.46;100.00;100932.19;1739810;81;21049;-71
2022/10/10 06:50:58;;;;;;;8.73;6.25;;;;;;;14.67;100.00;100930.20;1725313;82;21553;-71
2022/10/10 06:53:26;;;;;;;12.20;7.87;;;;;;;14.71;100.00;100943.84;1743927;82;21108;-71
2022/10/10 06:55:54;;;;;;;11.97;8.85;;;;;;;14.86;100.00;100928.73;1743473;81;21029;-71
2022/10/10 06:58:23;;;;;;;13.45;7.72;;;;;;;15.11;100.00;100931.28;1743618;82;20985;-71
2022/10/10 07:00:52;;;;;;;12.40;7.30;;;;;;;15.16;100.00;100936.55;1709767;82;21113;-71
2022/10/10 07:03:20;;;;;;;10.85;6.90;;;;;;;15.20;100.00;100936.75;1739705;82;21060;-70
2022/10/10 07:05:57;;;;;;;10.30;6.47;;;;;;;15.40;100.00;100956.38;1744382;82;21057;-70
2022/10/10 07:08:26;;;;;;;7.12;5.78;;;;;;;15.42;100.00;100933.77;1739761;82;21013;-71
2022/10/10 07:10:54;;;;;;;8.18;6.20;;;;;;;15.38;100.00;100936.17;1746281;82;21085;-70
2022/10/10 07:13:22;;;;;;;8.85;6.45;;;;;;;15.40;100.00;100943.88;1727931;82;21564;-71
2022/10/10 07:15:49;;;;;;;8.98;6.12;;;;;;;15.27;100.00;100936.41;1715638;81;21097;-71
2022/10/10 07:18:19;;;;;;;10.60;6.28;;;;;;;15.33;100.00;100936.91;1722737;82;21088;-71
2022/10/10 07:20:48;;;;;;;8.93;5.97;;;;;;;15.28;100.00;100937.63;1700009;82;21061;-71
2022/10/10 07:23:16;;;;;;;8.48;5.55;;;;;;;15.30;100.00;100933.66;1722614;82;21128;-71
2022/10/10 07:25:43;;;;;;;8.33;5.30;;;;;;;15.28;100.00;100951.06;1722575;82;21078;-70
2022/10/10 07:28:10;;;;;;;7.25;5.10;;;;;;;15.19;100.00;100932.97;1709799;82;21089;-70
2022/10/10 07:30:43;;;;;;;7.17;5.10;;;;;;;15.32;100.00;100932.63;1679506;82;21050;-71
2022/10/10 07:33:13;;;;;;;8.65;5.30;;;;;;;15.34;100.00;100929.48;1749170;82;21060;-71
2022/10/10 07:35:41;;;;;;;7.72;5.50;;;;;;;15.27;100.00;100935.97;1751435;82;21077;-71
2022/10/10 07:38:10;;;;;;;9.63;5.58;;;;;;;15.11;100.00;100934.70;1705467;82;21041;-71
2022/10/10 07:40:40;;;;;;;6.47;5.22;;;;;;;15.17;100.00;100942.13;1715779;82;21074;-71
2022/10/10 07:43:07;;;;;;;8.18;5.20;;;;;;;15.21;100.00;100935.02;1742218;82;21053;-70
2022/10/10 07:45:37;;;;;;;8.05;5.60;;;;;;;15.14;100.00;100935.80;1711219;82;21105;-70
2022/10/10 07:48:04;;;;;;;8.00;5.30;;;;;;;15.24;100.00;100928.34;1711403;82;21182;-70
2022/10/10 07:50:31;;;;;;;7.00;4.90;;;;;;;15.06;100.00;100934.58;1731364;82;21100;-71
2022/10/10 07:52:58;;;;;;;8.13;5.47;;;;;;;15.19;100.00;100938.16;1728490;82;21053;-70
2022/10/10 07:55:26;;;;;;;8.35;5.70;;;;;;;15.06;100.00;100947.53;1739991;82;21112;-71
2022/10/10 07:57:53;;;;;;;10.13;6.05;;;;;;;14.91;100.00;100935.80;1732144;82;21557;-70
2022/10/10 08:00:20;;;;;;;10.00;6.47;;;;;;;14.83;100.00;100939.28;1742889;81;21090;-71
2022/10/10 08:02:47;;;;;;;6.97;5.30;;;;;;;14.85;100.00;100927.07;1735239;81;21579;-70
2022/10/10 08:05:14;;;;;;;7.33;5.28;;;;;;;14.71;100.00;100924.41;1716621;82;21047;-71
2022/10/10 08:07:41;;;;;;;7.40;5.55;;;;;;;14.82;100.00;100924.64;1738282;82;21551;-71
2022/10/10 08:10:09;;;;;;;11.83;5.65;;;;;;;14.88;100.00;100925.63;1712152;82;21141;-70
2022/10/10 08:12:37;;;;;;;10.70;6.90;;;;;;;14.92;100.00;100928.86;1745834;82;21115;-71
2022/10/10 08:15:06;;;;;;;8.58;6.10;;;;;;;14.74;100.00;100913.42;1728770;82;21102;-70
2022/10/10 08:17:33;;;;;;;14.20;6.60;;;;;;;14.65;100.00;100918.27;1739296;82;21007;-71
2022/10/10 08:20:03;;;;;;;9.93;5.50;;;;;;;14.77;100.00;100915.83;1731793;82;21052;-70
2022/10/10 08:22:30;;;;;;;8.33;5.62;;;;;;;14.96;100.00;100922.14;1738211;82;21479;-71
2022/10/10 08:24:57;;;;;;;10.15;5.90;;;;;;;15.30;100.00;100924.11;1740743;81;21061;-71
2022/10/10 08:27:24;;;;;;;8.75;5.90;;;;;;;15.47;100.00;100919.27;1740412;81;21538;-71
2022/10/10 08:29:51;;;;;;;6.67;5.00;;;;;;;15.47;100.00;100925.75;1743548;81;20982;-70
2022/10/10 08:32:18;;;;;;;8.13;5.55;;;;;;;15.55;100.00;100933.06;1676845;84;21047;-71
2022/10/10 08:34:45;;;;;;;8.88;5.65;;;;;;;15.37;100.00;100927.20;1712021;83;21540;-71
2022/10/10 08:37:11;;;;;;;11.18;6.08;;;;;;;15.46;100.00;100920.64;1694297;84;21096;-71
2022/10/10 08:39:39;;;;;;;22.25;11.25;;;;;;;15.19;100.00;100927.79;1680738;84;21621;-71
2022/10/10 08:42:06;;;;;;;16.35;7.53;;;;;;;15.34;100.00;100932.08;1683658;85;22245;-71
2022/10/10 08:44:49;;;;;;;7.87;5.28;;;;;;;15.43;100.00;100922.48;1702890;83;21126;-71
2022/10/10 08:47:27;;;;;;;8.63;5.33;;;;;;;15.22;100.00;100935.37;1704038;84;21083;-71
2022/10/10 08:50:12;;;;;;;6.92;5.28;;;;;;;15.18;100.00;100942.95;1736950;82;21081;-71
2022/10/10 08:52:42;;;;;;;;;;;;;;;15.06;100.00;100935.87;1737238;82;21607;-71
2022/10/10 08:55:29;;;;;;;12.10;7.25;;;;;;;15.19;100.00;100927.79;1715027;82;20131;-70
2022/10/10 08:58:13;;;;;;;8.68;6.08;;;;;;;15.16;100.00;100931.84;1732683;82;21073;-70
2022/10/10 09:00:44;;;;;;;9.43;6.10;;;;;;;15.01;100.00;100941.32;1737288;82;21616;-70
2022/10/10 09:03:25;;;;;;;10.85;6.47;;;;;;;15.04;100.00;100937.24;1740508;82;21053;-71
2022/10/10 09:06:18;;;;;;;9.85;5.25;;;;;;;15.16;100.00;100943.50;1735228;82;21113;-72
2022/10/10 09:09:15;;;;;;;9.23;5.83;;;;;;;15.12;100.00;100939.41;1716808;82;21070;-70
2022/10/10 09:12:08;;;;;;;9.05;5.15;;;;;;;15.02;100.00;100930.88;1718605;82;21044;-70
2022/10/10 09:14:56;;;;;;;9.70;4.80;;;;;;;15.00;100.00;100940.49;1742229;82;21639;-70
2022/10/10 09:18:00;;;;;;;6.25;4.75;;;;;;;14.91;100.00;100942.75;1750372;81;21013;-69
2022/10/10 09:20:49;;;;;;;5.20;4.40;;;;;;;14.80;100.00;100935.11;1706944;83;21160;-71
2022/10/10 09:23:21;;;;;;;5.65;4.08;;;;;;;15.02;100.00;100936.49;1731956;82;21046;-71
2022/10/10 09:26:13;;;;;;;6.08;3.65;;;;;;;14.87;100.00;100938.19;1711478;82;21058;-70
2022/10/10 09:28:54;;;;;;;9.05;5.00;;;;;;;14.77;100.00;100938.33;1727684;82;21065;-71
2022/10/10 09:31:29;;;;;;;4.87;3.67;;;;;;;14.85;100.00;100929.66;1719239;82;21105;-70
2022/10/10 09:34:14;;;;;;;7.20;4.25;;;;;;;14.80;100.00;100933.81;1737201;82;21545;-71
2022/10/10 09:36:43;;;;;;;8.95;4.03;;;;;;;14.92;100.00;100947.00;1723865;82;21065;-70
2022/10/10 09:39:42;;;;;;;6.40;3.92;;;;;;;14.84;100.00;100946.13;1718531;82;21072;-70
2022/10/10 09:42:17;;;;;;;5.95;3.75;;;;;;;14.99;100.00;100937.51;1741270;82;21045;-71
2022/10/10 09:44:43;;;;;;;5.10;3.50;;;;;;;14.78;100.00;100942.13;1742417;82;21098;-71
2022/10/10 09:47:16;;;;;;;6.58;4.25;;;;;;;14.78;100.00;100934.80;1742465;82;21545;-71
2022/10/10 09:49:44;;;;;;;5.78;3.60;;;;;;;14.89;100.00;100937.64;1731683;82;21475;-71
2022/10/10 09:52:30;;;;;;;5.83;3.98;;;;;;;14.86;100.00;100946.05;1742361;82;21013;-70
2022/10/10 09:55:04;;;;;;;7.33;4.08;;;;;;;14.73;100.00;100929.05;1715310;82;21109;-71
2022/10/10 09:57:40;;;;;;;4.90;3.62;;;;;;;14.69;100.00;100936.14;1728593;82;20998;-71
2022/10/10 10:00:33;;;;;;;4.12;3.45;;;;;;;14.55;100.00;100950.27;1707073;82;21545;-71
2022/10/10 10:03:19;;;;;;;8.05;4.78;;;;;;;14.41;100.00;100937.59;1744065;82;21072;-70
2022/10/10 10:05:59;;;;;;;6.87;4.10;;;;;;;14.37;100.00;100932.66;1744868;82;21061;-71
2022/10/10 10:08:35;;;;;;;7.55;5.00;;;;;;;14.35;100.00;100927.55;1744735;82;21053;-71
2022/10/10 10:11:04;;;;;;;7.55;4.20;;;;;;;14.39;100.00;100925.64;1716776;82;21073;-71
2022/10/10 10:13:35;;;;;;;6.08;3.70;;;;;;;14.37;100.00;100926.19;1743130;82;21052;-70
2022/10/10 10:16:13;;;;;;;4.97;3.75;;;;;;;14.37;100.00;100924.42;1737402;82;21121;-71
2022/10/10 10:18:45;;;;;;;5.25;3.60;;;;;;;14.40;100.00;100917.80;1728066;82;21497;-71
2022/10/10 10:21:22;;;;;;;7.08;4.08;;;;;;;14.45;100.00;100920.60;1722813;82;21564;-71
2022/10/10 10:24:23;;;;;;;5.85;3.87;;;;;;;14.36;100.00;100919.34;1735772;81;21031;-71
2022/10/10 10:26:50;;;;;;;7.60;4.30;;;;;;;14.28;100.00;100918.45;1733105;82;21037;-71
2022/10/10 10:29:31;;;;;;;6.70;4.50;;;;;;;14.29;100.00;100930.94;1737944;82;21128;-71
2022/10/10 10:32:34;;;;;;;6.67;3.83;;;;;;;14.26;100.00;100927.23;1740460;82;21076;-70
2022/10/10 10:35:21;;;;;;;6.95;4.10;;;;;;;14.19;100.00;100919.78;1731875;82;21534;-71
2022/10/10 10:38:12;;;;;;;4.90;3.40;;;;;;;14.14;100.00;100915.76;1735322;82;21097;-71
2022/10/10 10:41:08;;;;;;;4.85;3.70;;;;;;;14.07;100.00;100919.57;1739019;82;21537;-71
2022/10/10 10:44:02;;;;;;;3.72;3.17;;;;;;;14.13;100.00;100914.07;1721415;82;21573;-71
2022/10/10 10:46:59;;;;;;;6.33;3.87;;;;;;;14.06;100.00;100918.74;1745166;82;21109;-71
2022/10/10 10:49:43;;;;;;;4.62;3.33;;;;;;;13.91;100.00;100908.73;1742720;82;21077;-70
2022/10/10 10:52:22;;;;;;;;;;;;;;;13.89;100.00;100898.06;1736588;82;22202;-70
2022/10/10 10:55:15;;;;;;;4.60;3.22;;;;;;;13.78;100.00;100892.98;1737031;82;20130;-70
2022/10/10 10:58:00;;;;;;;7.28;4.05;;;;;;;13.63;100.00;100896.38;1743578;82;21055;-70
2022/10/10 11:00:32;;;;;;;6.12;4.03;;;;;;;13.51;100.00;100881.47;1727414;82;21164;-70
2022/10/10 11:03:24;;;;;;;6.15;4.50;;;;;;;13.37;100.00;100876.52;1742688;82;21576;-71
2022/10/10 11:06:16;;;;;;;6.78;4.47;;;;;;;13.27;100.00;100864.10;1731646;82;21064;-71
2022/10/10 11:09:06;;;;;;;5.45;4.00;;;;;;;13.13;100.00;100846.69;1735917;82;21580;-70
2022/10/10 11:12:06;;;;;;;6.05;4.17;;;;;;;13.10;100.00;100840.36;1748055;81;21055;-70
2022/10/10 11:14:51;;;;;;;6.72;5.03;;;;;;;13.21;100.00;100815.66;1740239;81;21003;-70
2022/10/10 11:17:39;;;;;;;6.10;4.75;;;;;;;13.24;100.00;100818.56;1742966;82;21016;-71
2022/10/10 11:20:20;;;;;;;6.85;4.28;;;;;;;13.35;100.00;100816.76;1750589;81;21012;-71
2022/10/10 11:22:52;;;;;;;9.60;5.15;;;;;;;13.49;100.00;100812.17;1746001;81;21042;-70
2022/10/10 11:25:32;;;;;;;8.70;4.95;;;;;;;13.56;100.00;100819.52;1747689;80;20989;-70
2022/10/10 11:28:39;;;;;;;8.53;4.65;;;;;;;13.52;100.00;100825.77;1746828;81;21012;-70
2022/10/10 11:31:10;;;;;;;7.08;4.37;;;;;;;13.56;100.00;100832.91;1747491;81;21023;-70
2022/10/10 11:33:48;;;;;;;16.82;6.65;;;;;;;13.36;100.00;100815.83;1741277;81;21098;-70
2022/10/10 11:36:19;;;;;;;15.55;7.90;;;;;;;13.14;100.00;100812.19;1735170;81;21876;-70
2022/10/10 11:39:06;;;;;;;12.80;7.35;;;;;;;12.86;100.00;100795.91;1749963;82;21110;-69